createdAt,value
2022-10-18T00:00:21.704Z,9.55
2022-10-18T00:02:48.901Z,9.15
2022-10-18T00:05:16.227Z,8.52
2022-10-18T00:07:43.417Z,7.97
2022-10-18T00:10:10.850Z,7.30
2022-10-18T00:12:38.665Z,7.10
2022-10-18T00:15:07.536Z,7.40
2022-10-18T00:17:38.686Z,7.32
2022-10-18T00:20:06.712Z,7.13
2022-10-18T00:22:36.312Z,7.75
2022-10-18T00:25:04.054Z,7.25
2022-10-18T00:27:32.283Z,7.10
2022-10-18T00:29:59.570Z,7.50
2022-10-18T00:32:27.045Z,7.40
2022-10-18T00:34:54.426Z,7.50
2022-10-18T00:37:21.616Z,7.40
2022-10-18T00:39:48.934Z,7.13
2022-10-18T00:42:17.757Z,7.35
2022-10-18T00:44:44.968Z,7.80
2022-10-18T00:47:14.239Z,7.70
2022-10-18T00:49:48.406Z,6.90
2022-10-18T00:52:19.196Z,7.50
2022-10-18T00:54:47.369Z,7.82
2022-10-18T00:57:14.592Z,7.90
2022-10-18T00:59:42.877Z,7.65
2022-10-18T01:02:10.662Z,7.10
2022-10-18T01:04:38.046Z,7.30
2022-10-18T01:07:18.276Z,7.50
2022-10-18T01:12:52.757Z,7.57
2022-10-18T01:15:28.099Z,7.18
2022-10-18T01:17:55.221Z,7.32
2022-10-18T01:20:50.027Z,7.85
2022-10-18T01:23:32.557Z,8.45
2022-10-18T01:26:37.211Z,8.10
2022-10-18T01:29:13.497Z,8.57
2022-10-18T01:32:07.783Z,8.57
2022-10-18T01:34:36.737Z,9.93
2022-10-18T01:37:08.466Z,9.30
2022-10-18T01:39:38.802Z,9.35
2022-10-18T01:44:34.324Z,10.48
2022-10-18T01:47:01.827Z,9.48
2022-10-18T01:49:29.018Z,10.23
2022-10-18T01:51:56.329Z,10.40
2022-10-18T01:54:29.589Z,10.10
2022-10-18T01:57:18.376Z,9.88
2022-10-18T01:59:58.515Z,10.50
2022-10-18T02:02:48.623Z,9.88
2022-10-18T02:05:40.295Z,9.95
2022-10-18T02:08:34.665Z,9.75
2022-10-18T02:11:28.484Z,10.48
2022-10-18T02:13:58.510Z,10.63
2022-10-18T02:16:36.348Z,10.45
2022-10-18T02:19:18.760Z,10.35
2022-10-18T02:21:47.861Z,11.38
2022-10-18T02:24:15.648Z,9.82
2022-10-18T02:26:42.989Z,10.10
2022-10-18T02:29:10.520Z,10.75
2022-10-18T02:31:44.906Z,10.07
2022-10-18T02:34:21.028Z,11.13
2022-10-18T02:36:54.871Z,10.93
2022-10-18T02:39:28.820Z,11.15
2022-10-18T02:41:56.921Z,10.25
2022-10-18T02:44:24.202Z,10.70
2022-10-18T02:46:51.479Z,11.15
2022-10-18T02:49:18.759Z,11.00
2022-10-18T02:51:45.925Z,10.93
2022-10-18T02:54:13.196Z,11.23
2022-10-18T02:56:40.405Z,11.25
2022-10-18T02:59:08.245Z,10.25
2022-10-18T03:01:36.271Z,10.52
2022-10-18T03:04:06.542Z,11.07
2022-10-18T03:06:34.041Z,10.38
2022-10-18T03:09:05.510Z,11.07
2022-10-18T03:11:32.864Z,12.00
2022-10-18T03:14:00.072Z,11.95
2022-10-18T03:16:30.771Z,12.48
2022-10-18T03:18:58.022Z,12.05
2022-10-18T03:21:25.225Z,11.98
2022-10-18T03:23:52.459Z,12.13
2022-10-18T03:26:21.459Z,12.27
2022-10-18T03:28:48.757Z,12.98
2022-10-18T03:31:16.448Z,12.20
2022-10-18T03:33:43.715Z,11.45
2022-10-18T03:36:12.116Z,12.20
2022-10-18T03:38:39.349Z,12.15
2022-10-18T03:41:06.571Z,12.30
2022-10-18T03:43:45.410Z,12.63
2022-10-18T03:46:12.682Z,12.73
2022-10-18T03:48:39.841Z,12.60
2022-10-18T03:51:07.197Z,12.75
2022-10-18T03:53:34.404Z,12.75
2022-10-18T03:56:01.644Z,13.00
2022-10-18T03:58:29.072Z,12.73
2022-10-18T04:00:56.303Z,12.55
2022-10-18T04:03:23.714Z,12.27
2022-10-18T04:05:54.389Z,12.35
2022-10-18T04:08:21.564Z,13.77
2022-10-18T04:10:48.949Z,12.52
2022-10-18T04:13:16.838Z,13.05
2022-10-18T04:15:44.082Z,13.30
2022-10-18T04:18:11.306Z,14.30
2022-10-18T04:20:38.481Z,14.43
2022-10-18T04:23:05.728Z,14.95
2022-10-18T04:28:18.867Z,15.68
2022-10-18T04:30:53.231Z,15.88
2022-10-18T04:33:20.541Z,18.65
2022-10-18T04:35:51.907Z,16.67
2022-10-18T04:38:20.212Z,20.10
2022-10-18T04:40:47.569Z,20.25
2022-10-18T04:43:14.843Z,20.38
2022-10-18T04:45:42.239Z,22.60
2022-10-18T04:48:09.762Z,23.40
2022-10-18T04:50:36.988Z,24.65
2022-10-18T04:53:15.380Z,25.80
2022-10-18T04:55:49.202Z,24.98
2022-10-18T04:58:17.714Z,26.20
2022-10-18T05:00:45.077Z,26.08
2022-10-18T05:03:13.334Z,27.80
2022-10-18T05:06:00.164Z,27.50
2022-10-18T05:08:28.826Z,27.88
2022-10-18T05:10:56.068Z,28.55
2022-10-18T05:13:23.302Z,29.58
2022-10-18T05:15:50.870Z,28.52
2022-10-18T05:18:18.167Z,29.25
2022-10-18T05:20:45.396Z,29.63
2022-10-18T05:23:12.619Z,29.92
2022-10-18T05:25:43.353Z,30.55
2022-10-18T05:28:34.166Z,31.30
2022-10-18T05:31:12.042Z,31.45
2022-10-18T05:33:39.292Z,29.23
2022-10-18T05:36:07.003Z,29.27
2022-10-18T05:41:10.397Z,33.67
2022-10-18T05:43:38.004Z,32.03
2022-10-18T05:46:14.514Z,36.85
2022-10-18T05:48:44.441Z,47.10
2022-10-18T05:51:12.067Z,40.60
2022-10-18T05:53:39.330Z,36.92
2022-10-18T05:56:07.181Z,34.50
2022-10-18T05:58:34.613Z,34.42
2022-10-18T06:01:02.416Z,33.85
2022-10-18T06:03:30.881Z,33.88
2022-10-18T06:06:08.689Z,32.03
2022-10-18T06:08:37.375Z,32.30
2022-10-18T06:11:07.897Z,33.60
2022-10-18T06:13:35.099Z,33.40
2022-10-18T06:16:02.312Z,34.00
2022-10-18T06:18:29.848Z,33.53
2022-10-18T06:20:58.421Z,31.92
2022-10-18T06:23:29.304Z,44.03
2022-10-18T06:26:01.138Z,69.72
2022-10-18T06:28:29.393Z,43.33
2022-10-18T06:30:57.662Z,32.38
2022-10-18T06:33:25.156Z,31.45
2022-10-18T06:35:57.260Z,33.75
2022-10-18T06:38:24.642Z,32.10
2022-10-18T06:40:51.950Z,30.73
2022-10-18T06:43:21.534Z,32.03
2022-10-18T06:45:49.490Z,30.45
2022-10-18T06:48:17.736Z,30.42
2022-10-18T06:50:57.015Z,30.90
2022-10-18T06:53:25.398Z,31.13
2022-10-18T06:55:53.358Z,29.70
2022-10-18T06:58:20.599Z,30.30
2022-10-18T07:00:47.778Z,29.10
2022-10-18T07:03:15.054Z,50.33
2022-10-18T07:05:42.477Z,49.38
2022-10-18T07:08:09.919Z,29.48
2022-10-18T07:10:37.132Z,28.95
2022-10-18T07:13:27.331Z,28.08
2022-10-18T07:16:08.647Z,27.38
2022-10-18T07:18:38.634Z,27.33
2022-10-18T07:21:11.420Z,26.75
2022-10-18T07:23:40.508Z,26.25
2022-10-18T07:26:19.991Z,24.90
2022-10-18T07:28:50.037Z,27.40
2022-10-18T07:31:17.764Z,25.52
2022-10-18T07:33:45.187Z,18.33
2022-10-18T07:36:13.275Z,16.75
2022-10-18T07:38:41.169Z,15.98
2022-10-18T07:41:11.033Z,14.70
2022-10-18T07:43:41.856Z,14.13
2022-10-18T07:46:09.369Z,13.27
2022-10-18T07:48:36.713Z,12.77
2022-10-18T07:51:04.757Z,12.73
2022-10-18T07:53:33.077Z,13.00
2022-10-18T07:56:15.918Z,11.60
2022-10-18T07:58:44.574Z,23.08
2022-10-18T08:01:13.029Z,8.52
2022-10-18T08:03:41.529Z,8.15
2022-10-18T08:06:10.082Z,8.55
2022-10-18T08:08:38.981Z,7.90
2022-10-18T08:11:09.757Z,7.82
2022-10-18T08:13:37.138Z,7.93
2022-10-18T08:16:06.707Z,6.93
2022-10-18T08:18:34.583Z,7.05
2022-10-18T08:21:03.529Z,7.30
2022-10-18T08:23:30.867Z,6.95
2022-10-18T08:26:05.543Z,6.88
2022-10-18T08:28:33.125Z,11.07
2022-10-18T08:31:08.134Z,9.45
2022-10-18T08:33:36.237Z,6.63
2022-10-18T08:36:07.220Z,6.93
2022-10-18T08:38:35.919Z,7.82
2022-10-18T08:41:42.267Z,7.93
2022-10-18T08:44:28.333Z,8.43
2022-10-18T08:47:05.386Z,7.53
2022-10-18T08:49:45.556Z,8.40
2022-10-18T08:52:26.183Z,9.48
2022-10-18T08:55:10.017Z,8.00
2022-10-18T08:57:37.574Z,25.13
2022-10-18T09:00:25.705Z,27.88
2022-10-18T09:03:16.478Z,10.60
2022-10-18T09:05:50.623Z,8.73
2022-10-18T09:08:23.910Z,9.45
2022-10-18T09:11:20.469Z,7.72
2022-10-18T09:14:05.892Z,83.25
2022-10-18T09:16:54.320Z,17.42
2022-10-18T09:19:24.435Z,7.13
2022-10-18T09:21:54.500Z,6.63
2022-10-18T09:24:40.770Z,17.85
2022-10-18T09:27:17.334Z,11.65
2022-10-18T09:30:09.182Z,15.02
2022-10-18T09:32:45.046Z,12.15
2022-10-18T09:35:14.182Z,8.82
2022-10-18T09:37:42.247Z,8.15
2022-10-18T09:40:19.908Z,10.32
2022-10-18T09:43:11.830Z,12.90
2022-10-18T09:45:42.101Z,7.85
2022-10-18T09:48:28.456Z,7.53
2022-10-18T09:51:21.836Z,7.38
2022-10-18T09:53:51.956Z,11.40
2022-10-18T09:56:24.958Z,8.55
2022-10-18T09:58:52.505Z,7.18
2022-10-18T10:01:39.910Z,6.03
2022-10-18T10:04:07.130Z,6.35
2022-10-18T10:06:34.684Z,9.40
2022-10-18T10:09:07.931Z,10.80
2022-10-18T10:11:40.387Z,5.70
2022-10-18T10:17:21.824Z,4.30
2022-10-18T10:20:20.736Z,24.70
2022-10-18T10:22:50.233Z,6.03
2022-10-18T10:25:21.612Z,3.97
2022-10-18T10:27:49.183Z,3.00
2022-10-18T10:30:27.410Z,6.07
2022-10-18T10:32:55.959Z,4.85
2022-10-18T10:35:58.873Z,31.63
2022-10-18T10:38:28.883Z,6.65
2022-10-18T10:40:56.930Z,4.03
2022-10-18T10:43:38.764Z,3.25
2022-10-18T10:46:13.377Z,3.28
2022-10-18T10:49:04.217Z,2.33
2022-10-18T10:51:40.383Z,2.60
2022-10-18T10:54:19.878Z,2.20
2022-10-18T10:57:12.528Z,2.58
2022-10-18T11:00:00.870Z,3.40
2022-10-18T11:02:34.026Z,3.67
2022-10-18T11:05:29.177Z,12.75
2022-10-18T11:08:02.429Z,17.30
2022-10-18T11:10:32.408Z,14.20
2022-10-18T11:13:25.004Z,8.88
2022-10-18T11:16:00.605Z,7.07
2022-10-18T11:18:33.904Z,7.65
2022-10-18T11:21:17.339Z,5.43
2022-10-18T11:23:45.820Z,4.70
2022-10-18T11:26:13.012Z,4.88
2022-10-18T11:29:11.473Z,4.60
2022-10-18T11:31:50.863Z,6.18
2022-10-18T11:34:57.397Z,4.00
2022-10-18T11:37:46.343Z,4.32
2022-10-18T11:40:51.012Z,3.95
2022-10-18T11:44:00.564Z,3.90
2022-10-18T11:46:37.720Z,3.83
2022-10-18T11:49:33.278Z,4.05
2022-10-18T11:52:38.131Z,4.35
2022-10-18T11:55:16.807Z,6.25
2022-10-18T11:57:53.163Z,6.53
2022-10-18T12:00:51.189Z,5.85
2022-10-18T12:03:24.082Z,5.00
2022-10-18T12:05:53.073Z,5.03
2022-10-18T12:08:39.439Z,4.22
2022-10-18T12:11:13.803Z,4.25
2022-10-18T12:13:54.232Z,3.72
2022-10-18T12:16:39.231Z,3.17
2022-10-18T12:19:25.215Z,4.43
2022-10-18T12:21:56.709Z,9.63
2022-10-18T12:24:28.153Z,2.55
2022-10-18T12:26:59.314Z,2.25
2022-10-18T12:29:54.729Z,2.55
2022-10-18T12:32:26.614Z,2.63
2022-10-18T12:35:13.217Z,2.10
2022-10-18T12:38:19.730Z,1.85
2022-10-18T12:40:49.877Z,1.88
2022-10-18T12:45:51.519Z,2.40
2022-10-18T12:48:34.056Z,1.73
2022-10-18T12:51:18.896Z,2.75
2022-10-18T12:53:48.449Z,2.22
2022-10-18T12:56:46.760Z,1.75
2022-10-18T12:59:14.092Z,1.77
2022-10-18T13:01:50.658Z,1.75
2022-10-18T13:04:27.130Z,1.88
2022-10-18T13:07:33.572Z,1.77
2022-10-18T13:10:10.085Z,1.60
2022-10-18T13:12:49.799Z,1.85
2022-10-18T13:15:39.740Z,1.95
2022-10-18T13:21:10.247Z,1.98
2022-10-18T13:23:59.884Z,2.22
2022-10-18T13:26:39.783Z,2.22
2022-10-18T13:29:16.430Z,1.85
2022-10-18T13:31:48.076Z,2.80
2022-10-18T13:34:22.495Z,2.50
2022-10-18T13:37:06.704Z,2.40
2022-10-18T13:39:33.984Z,1.98
2022-10-18T13:42:01.138Z,2.60
2022-10-18T13:44:37.438Z,5.40
2022-10-18T13:47:04.604Z,8.85
2022-10-18T13:50:00.222Z,3.65
2022-10-18T13:52:46.204Z,2.88
2022-10-18T13:55:52.035Z,4.32
2022-10-18T13:59:06.160Z,4.65
2022-10-18T14:02:04.476Z,3.65
2022-10-18T14:04:34.418Z,3.95
2022-10-18T14:07:03.751Z,3.85
2022-10-18T14:09:52.436Z,4.10
2022-10-18T14:12:31.352Z,3.00
2022-10-18T14:15:35.640Z,3.33
2022-10-18T14:18:15.726Z,2.67
2022-10-18T14:21:01.342Z,2.50
2022-10-18T14:26:08.477Z,2.17
2022-10-18T14:28:55.282Z,2.78
2022-10-18T14:31:23.056Z,2.45
2022-10-18T14:33:58.047Z,2.00
2022-10-18T14:36:29.207Z,2.25
2022-10-18T14:39:05.709Z,2.00
2022-10-18T14:41:35.215Z,1.58
2022-10-18T14:44:14.843Z,1.73
2022-10-18T14:46:43.849Z,1.80
2022-10-18T14:49:12.705Z,1.90
2022-10-18T14:51:42.909Z,1.60
2022-10-18T14:56:44.315Z,1.60
2022-10-18T14:59:19.986Z,1.77
2022-10-18T15:02:17.130Z,2.50
2022-10-18T15:04:45.654Z,4.93
2022-10-18T15:07:14.975Z,6.38
2022-10-18T15:09:42.583Z,2.00
2022-10-18T15:12:13.166Z,1.70
2022-10-18T15:14:41.414Z,1.77
2022-10-18T15:17:15.177Z,1.98
2022-10-18T15:20:00.465Z,1.60
2022-10-18T15:22:32.578Z,1.80
2022-10-18T15:25:16.231Z,1.70
2022-10-18T15:27:48.603Z,1.88
2022-10-18T15:30:43.012Z,2.20
2022-10-18T15:33:21.187Z,3.50
2022-10-18T15:35:48.637Z,2.95
2022-10-18T15:38:37.347Z,1.77
2022-10-18T15:41:36.599Z,1.60
2022-10-18T15:44:28.409Z,1.70
2022-10-18T15:47:09.960Z,1.80
2022-10-18T15:49:46.327Z,1.75
2022-10-18T15:52:37.472Z,2.00
2022-10-18T15:55:30.576Z,1.80
2022-10-18T15:58:05.027Z,1.95
2022-10-18T16:00:32.667Z,2.22
2022-10-18T16:02:59.856Z,1.90
2022-10-18T16:05:27.279Z,2.20
2022-10-18T16:07:54.807Z,1.95
2022-10-18T16:10:22.129Z,1.90
2022-10-18T16:12:49.357Z,2.03
2022-10-18T16:15:16.712Z,2.08
2022-10-18T16:17:43.912Z,1.98
2022-10-18T16:20:22.965Z,2.05
2022-10-18T16:22:50.634Z,2.20
2022-10-18T16:25:17.991Z,2.08
2022-10-18T16:27:45.544Z,2.08
2022-10-18T16:30:15.141Z,2.10
2022-10-18T16:32:42.508Z,2.05
2022-10-18T16:35:10.812Z,1.98
2022-10-18T16:37:39.564Z,2.15
2022-10-18T16:40:21.069Z,2.53
2022-10-18T16:42:48.379Z,2.28
2022-10-18T16:45:15.616Z,2.60
2022-10-18T16:47:42.853Z,2.33
2022-10-18T16:50:16.417Z,2.42
2022-10-18T16:52:43.739Z,2.92
2022-10-18T16:55:17.183Z,2.60
2022-10-18T16:57:44.434Z,2.60
2022-10-18T17:00:22.340Z,2.30
2022-10-18T17:02:50.194Z,2.47
2022-10-18T17:05:18.586Z,2.40
2022-10-18T17:07:46.845Z,2.50
2022-10-18T17:10:16.443Z,2.63
2022-10-18T17:12:43.837Z,2.20
2022-10-18T17:15:12.114Z,2.25
2022-10-18T17:17:39.500Z,3.05
2022-10-18T17:20:08.020Z,3.55
2022-10-18T17:22:35.428Z,2.13
2022-10-18T17:25:02.657Z,2.88
2022-10-18T17:27:30.249Z,2.65
2022-10-18T17:29:57.633Z,2.92
2022-10-18T17:32:24.907Z,2.72
2022-10-18T17:34:52.231Z,2.90
2022-10-18T17:37:19.526Z,3.15
2022-10-18T17:39:46.888Z,8.45
2022-10-18T17:42:14.145Z,8.50
2022-10-18T17:44:43.159Z,15.23
2022-10-18T17:47:10.512Z,6.25
2022-10-18T17:49:37.763Z,4.57
2022-10-18T17:52:07.044Z,4.20
2022-10-18T17:54:34.628Z,3.90
2022-10-18T17:57:01.838Z,4.45
2022-10-18T17:59:29.075Z,4.10
2022-10-18T18:01:56.451Z,3.90
2022-10-18T18:04:24.187Z,4.60
2022-10-18T18:06:52.841Z,4.68
2022-10-18T18:09:21.044Z,4.78
2022-10-18T18:11:49.350Z,4.50
2022-10-18T18:14:16.677Z,4.80
2022-10-18T18:16:46.137Z,4.70
2022-10-18T18:19:13.955Z,4.75
2022-10-18T18:21:42.562Z,5.32
2022-10-18T18:24:10.532Z,5.00
2022-10-18T18:26:38.633Z,4.65
2022-10-18T18:29:06.463Z,4.95
2022-10-18T18:31:38.836Z,4.82
2022-10-18T18:34:09.562Z,4.72
2022-10-18T18:36:36.815Z,6.53
2022-10-18T18:39:05.721Z,6.18
2022-10-18T18:41:33.130Z,5.35
2022-10-18T18:44:05.501Z,5.18
2022-10-18T18:46:36.808Z,5.32
2022-10-18T18:49:05.310Z,5.93
2022-10-18T18:51:33.325Z,5.50
2022-10-18T18:54:00.811Z,5.85
2022-10-18T18:56:28.899Z,6.47
2022-10-18T18:58:58.618Z,6.45
2022-10-18T19:01:28.253Z,6.13
2022-10-18T19:03:56.656Z,5.55
2022-10-18T19:06:32.403Z,6.22
2022-10-18T19:09:01.460Z,5.10
2022-10-18T19:11:32.506Z,4.78
2022-10-18T19:14:00.468Z,4.78
2022-10-18T19:16:47.599Z,5.00
2022-10-18T19:19:17.563Z,8.57
2022-10-18T19:21:51.382Z,6.22
2022-10-18T19:24:20.359Z,5.80
2022-10-18T19:26:58.580Z,6.13
2022-10-18T19:29:27.012Z,7.13
2022-10-18T19:31:57.700Z,7.60
2022-10-18T19:34:27.511Z,8.95
2022-10-18T19:36:55.107Z,6.43
2022-10-18T19:39:26.969Z,6.82
2022-10-18T19:41:56.677Z,6.50
2022-10-18T19:44:25.712Z,6.30
2022-10-18T19:46:53.129Z,8.45
2022-10-18T19:49:20.527Z,8.65
2022-10-18T19:51:47.914Z,6.45
2022-10-18T19:54:15.995Z,6.60
2022-10-18T19:56:43.818Z,6.32
2022-10-18T19:59:15.887Z,6.53
2022-10-18T20:01:43.704Z,6.85
2022-10-18T20:04:11.881Z,7.03
2022-10-18T20:06:39.260Z,6.82
2022-10-18T20:09:07.888Z,6.40
2022-10-18T20:11:36.068Z,6.70
2022-10-18T20:14:05.355Z,6.78
2022-10-18T20:16:33.482Z,6.45
2022-10-18T20:19:02.988Z,7.13
2022-10-18T20:21:32.558Z,6.97
2022-10-18T20:23:59.765Z,7.55
2022-10-18T20:26:27.047Z,7.53
2022-10-18T20:28:59.724Z,9.32
2022-10-18T20:31:32.117Z,8.30
2022-10-18T20:34:01.780Z,7.47
2022-10-18T20:36:30.469Z,8.23
2022-10-18T20:38:58.131Z,7.38
2022-10-18T20:41:29.547Z,7.57
2022-10-18T20:44:10.580Z,7.57
2022-10-18T20:46:38.883Z,7.28
2022-10-18T20:49:07.493Z,7.80
2022-10-18T20:51:35.585Z,7.72
2022-10-18T20:56:35.358Z,7.90
2022-10-18T20:59:06.163Z,8.07
2022-10-18T21:01:34.613Z,7.38
2022-10-18T21:04:04.652Z,8.25
2022-10-18T21:06:34.330Z,7.90
2022-10-18T21:09:07.139Z,8.00
2022-10-18T21:11:36.598Z,9.13
2022-10-18T21:14:04.670Z,7.90
2022-10-18T21:16:33.936Z,7.97
2022-10-18T21:19:04.315Z,7.53
2022-10-18T21:21:32.027Z,7.40
2022-10-18T21:24:02.461Z,9.98
2022-10-18T21:26:32.940Z,10.13
2022-10-18T21:29:21.969Z,8.02
2022-10-18T21:32:15.344Z,7.97
2022-10-18T21:34:45.503Z,8.00
2022-10-18T21:39:39.715Z,8.65
2022-10-18T21:42:09.622Z,8.75
2022-10-18T21:44:37.754Z,9.10
2022-10-18T21:47:04.986Z,9.25
2022-10-18T21:49:35.108Z,8.38
2022-10-18T21:52:06.597Z,9.25
2022-10-18T21:54:33.846Z,9.38
2022-10-18T21:57:06.752Z,9.80
2022-10-18T21:59:34.099Z,9.50
2022-10-18T22:02:02.930Z,9.23
2022-10-18T22:04:35.679Z,9.55
2022-10-18T22:07:04.172Z,8.98
2022-10-18T22:09:31.923Z,8.95
2022-10-18T22:11:59.277Z,9.18
2022-10-18T22:14:26.498Z,9.63
2022-10-18T22:16:53.987Z,9.18
2022-10-18T22:19:21.353Z,8.45
2022-10-18T22:21:48.595Z,8.63
2022-10-18T22:24:16.034Z,8.10
2022-10-18T22:26:45.259Z,7.72
2022-10-18T22:29:18.704Z,8.25
2022-10-18T22:31:52.043Z,7.55
2022-10-18T22:34:21.513Z,7.15
2022-10-18T22:36:48.802Z,7.80
2022-10-18T22:39:17.512Z,7.30
2022-10-18T22:41:45.031Z,7.07
2022-10-18T22:44:25.055Z,7.65
2022-10-18T22:46:52.330Z,8.07
2022-10-18T22:49:19.591Z,7.55
2022-10-18T22:51:46.787Z,7.07
2022-10-18T22:54:14.116Z,6.82
2022-10-18T22:56:41.401Z,7.50
2022-10-18T22:59:08.717Z,7.25
2022-10-18T23:01:36.028Z,7.32
2022-10-18T23:04:04.032Z,7.32
2022-10-18T23:06:33.276Z,7.25
2022-10-18T23:09:03.002Z,7.55
2022-10-18T23:11:30.709Z,7.55
2022-10-18T23:13:59.370Z,7.63
2022-10-18T23:16:26.712Z,7.75
2022-10-18T23:18:55.074Z,7.30
2022-10-18T23:21:24.340Z,7.20
2022-10-18T23:23:53.117Z,7.33
2022-10-18T23:26:23.314Z,7.15
2022-10-18T23:28:51.930Z,7.47
2022-10-18T23:31:20.840Z,6.47
2022-10-18T23:33:49.445Z,7.13
2022-10-18T23:36:17.127Z,8.05
2022-10-18T23:38:44.885Z,7.00
2022-10-18T23:41:13.953Z,7.40
2022-10-18T23:43:41.636Z,7.93
2022-10-18T23:46:09.584Z,7.97
2022-10-18T23:48:36.867Z,7.28
2022-10-18T23:51:04.724Z,7.53
2022-10-18T23:53:32.138Z,8.38
2022-10-18T23:56:02.358Z,7.82
